Terminal Aerodrome Forecast
Issued by NWS

Current Version | Previous Version | Text Only | Print | Product List | Glossary On
Versions: 1 2 3 4 5 6 7 8 9 10 11 12 13 14 15 16 17 18 19 20 21 22 23 24 25 26 27 28 29 30 31 32 33 34 35 36 37 38 39 40 41 42 43 44 45 46
000
FTUS45 KBOU 020532
TAFBJC
TAF
KBJC 020532Z 0206/0306 05006KT P6SM SCT070 BKN100
     FM020800 06010KT P6SM SCT020 OVC040
     FM021300 07010KT P6SM SCT012 OVC020
      TEMPO 0213/0217 4SM -RASN BKN012
     FM021700 01010KT 1SM -SN BR SCT008 OVC015
      TEMPO 0219/0223 1/2SM SN FZFG SCT004 OVC008
     FM022300 01011G18KT 1/2SM SN FZFG SCT004 OVC008
     FM030400 35006KT 5SM -SN SCT008 OVC015=

USA.gov is the U.S. government's official web portal to all federal, state and local government web resources and services.